Terminal Aerodrome Forecast
Issued by NWS Wilmington, OH

Current Version | Previous Version | Text Only | Print | Product List | Glossary Off
Versions: 1 2 3 4 5 6 7 8 9 10 11 12 13 14 15 16 17 18 19 20 21 22

000
FTUS41 KILN 200800 AAA
TAFDAY
TAF AMD
KDAY 200816Z 2008/2106 10003KT 1/2SM FG VV001
      TEMPO 2008/2010 5SM BR BKN025
     FM201000 08003KT 5SM BR OVC025
     FM201400 12005KT P6SM OVC025
     FM201800 13006KT P6SM BKN025
     FM210100 VRB03KT P6SM VCSH OVC025=

USA.gov is the U.S. government's official web portal to all federal, state and local government web resources and services.